createdAt,value
2023-03-25T00:03:46.986Z,72.15
2023-03-25T00:07:14.215Z,72.33
2023-03-25T00:10:45.106Z,72.22
2023-03-25T00:14:17.548Z,72.18
2023-03-25T00:17:47.241Z,72.26
2023-03-25T00:21:15.254Z,71.89
2023-03-25T00:24:43.416Z,71.99
2023-03-25T00:28:15.561Z,72.30
2023-03-25T00:31:43.717Z,72.32
2023-03-25T00:35:21.681Z,71.97
2023-03-25T00:38:51.743Z,71.82
2023-03-25T00:42:27.605Z,72.22
2023-03-25T00:45:58.549Z,72.08
2023-03-25T00:49:25.709Z,72.33
2023-03-25T00:52:53.672Z,72.36
2023-03-25T00:56:21.042Z,72.25
2023-03-25T00:59:49.899Z,72.58
2023-03-25T01:03:19.628Z,72.58
2023-03-25T01:06:52.239Z,72.66
2023-03-25T01:10:19.589Z,72.77
2023-03-25T01:13:46.994Z,72.53
2023-03-25T01:17:15.170Z,72.78
2023-03-25T01:20:44.186Z,72.86
2023-03-25T01:24:14.331Z,72.61
2023-03-25T01:27:44.640Z,72.73
2023-03-25T01:31:18.231Z,72.36
2023-03-25T01:34:48.561Z,72.47
2023-03-25T01:38:17.805Z,72.25
2023-03-25T01:41:55.800Z,72.25
2023-03-25T01:45:37.723Z,72.41
2023-03-25T01:49:11.618Z,72.49
2023-03-25T01:52:52.560Z,72.50
2023-03-25T01:56:26.099Z,72.64
2023-03-25T01:59:53.951Z,72.69
2023-03-25T02:03:24.094Z,72.63
2023-03-25T02:06:55.058Z,72.75
2023-03-25T02:10:23.472Z,72.85
2023-03-25T02:13:52.978Z,73.29
2023-03-25T02:17:29.992Z,72.78
2023-03-25T02:21:27.041Z,73.11
2023-03-25T02:25:21.128Z,73.23
2023-03-25T02:28:56.854Z,73.08
2023-03-25T02:32:44.620Z,73.04
2023-03-25T02:36:41.715Z,72.95
2023-03-25T02:40:12.116Z,73.00
2023-03-25T02:43:45.914Z,72.74
2023-03-25T02:47:18.824Z,72.58
2023-03-25T02:50:50.430Z,72.77
2023-03-25T02:54:20.960Z,72.34
2023-03-25T02:57:53.300Z,72.80
2023-03-25T03:01:23.193Z,72.47
2023-03-25T03:04:55.337Z,72.64
2023-03-25T03:08:37.488Z,72.33
2023-03-25T03:12:18.085Z,72.83
2023-03-25T03:15:55.555Z,72.86
2023-03-25T03:19:38.331Z,72.99
2023-03-25T03:23:15.160Z,72.63
2023-03-25T03:26:49.998Z,72.95
2023-03-25T03:30:27.625Z,72.94
2023-03-25T03:33:58.810Z,72.92
2023-03-25T03:37:31.710Z,73.03
2023-03-25T03:41:04.860Z,72.91
2023-03-25T03:44:36.238Z,72.70
2023-03-25T03:48:07.558Z,73.04
2023-03-25T03:51:38.535Z,72.84
2023-03-25T03:55:11.007Z,73.11
2023-03-25T03:58:43.279Z,72.84
2023-03-25T04:02:19.371Z,72.96
2023-03-25T04:05:56.214Z,73.17
2023-03-25T04:09:29.406Z,73.09
2023-03-25T04:13:00.000Z,73.20
2023-03-25T04:16:28.832Z,73.41
2023-03-25T04:19:56.018Z,73.52
2023-03-25T04:23:23.166Z,73.48
2023-03-25T04:26:50.080Z,73.78
2023-03-25T04:30:19.372Z,74.06
2023-03-25T04:33:50.996Z,73.68
2023-03-25T04:37:17.539Z,74.08
2023-03-25T04:40:46.995Z,73.79
2023-03-25T04:44:14.340Z,74.02
2023-03-25T04:47:45.117Z,74.05
2023-03-25T04:51:14.226Z,73.83
2023-03-25T04:54:41.295Z,74.23
2023-03-25T04:58:11.602Z,74.17
2023-03-25T05:01:42.550Z,74.57
2023-03-25T05:05:10.734Z,74.24
2023-03-25T05:08:38.495Z,74.21
2023-03-25T05:12:05.088Z,74.15
2023-03-25T05:15:35.814Z,73.69
2023-03-25T05:19:03.820Z,73.89
2023-03-25T05:22:31.162Z,73.95
2023-03-25T05:25:58.037Z,73.86
2023-03-25T05:29:24.536Z,73.96
2023-03-25T05:32:56.722Z,73.81
2023-03-25T05:36:25.265Z,73.82
2023-03-25T05:39:52.882Z,73.76
2023-03-25T05:43:23.229Z,74.10
2023-03-25T05:46:52.786Z,74.11
2023-03-25T05:50:20.415Z,74.33
2023-03-25T05:53:50.208Z,74.43
2023-03-25T05:57:17.091Z,74.20
2023-03-25T06:00:44.442Z,74.45
2023-03-25T06:04:13.321Z,74.51
2023-03-25T06:07:43.046Z,74.69
2023-03-25T06:11:10.639Z,74.94
2023-03-25T06:14:37.931Z,74.79
2023-03-25T06:18:05.882Z,74.92
2023-03-25T06:21:35.202Z,74.92
2023-03-25T06:25:04.141Z,74.93
2023-03-25T06:28:31.380Z,75.07
2023-03-25T06:31:59.852Z,75.29
2023-03-25T06:35:26.627Z,75.20
2023-03-25T06:38:53.943Z,75.21
2023-03-25T06:42:22.076Z,75.52
2023-03-25T06:45:59.911Z,75.57
2023-03-25T06:49:51.990Z,75.68
2023-03-25T06:53:18.703Z,75.75
2023-03-25T06:56:45.649Z,75.26
2023-03-25T07:00:15.344Z,75.55
2023-03-25T07:03:42.799Z,75.47
2023-03-25T07:07:09.805Z,75.73
2023-03-25T07:10:37.904Z,75.65
2023-03-25T07:14:06.087Z,75.31
2023-03-25T07:17:32.958Z,75.60
2023-03-25T07:21:00.273Z,75.57
2023-03-25T07:24:26.968Z,75.40
2023-03-25T07:27:53.668Z,75.21
2023-03-25T07:31:21.157Z,75.37
2023-03-25T07:34:48.479Z,75.41
2023-03-25T07:38:15.565Z,75.30
2023-03-25T07:41:43.537Z,75.02
2023-03-25T07:45:20.874Z,75.19
2023-03-25T07:48:48.705Z,75.32
2023-03-25T07:52:15.284Z,75.35
2023-03-25T07:55:42.556Z,75.23
2023-03-25T07:59:09.875Z,75.32
2023-03-25T08:02:36.925Z,75.39
2023-03-25T08:06:04.952Z,75.15
2023-03-25T08:09:32.217Z,75.01
2023-03-25T08:12:59.766Z,74.93
2023-03-25T08:16:26.872Z,74.72
2023-03-25T08:19:58.301Z,74.70
2023-03-25T08:23:27.227Z,74.62
2023-03-25T08:26:56.543Z,74.57
2023-03-25T08:30:26.137Z,74.23
2023-03-25T08:34:05.489Z,74.24
2023-03-25T08:37:40.080Z,74.23
2023-03-25T08:41:08.582Z,74.03
2023-03-25T08:44:37.246Z,73.98
2023-03-25T08:48:04.677Z,73.89
2023-03-25T08:51:35.510Z,73.73
2023-03-25T08:55:02.985Z,73.73
2023-03-25T08:58:33.854Z,73.47
2023-03-25T09:02:02.772Z,73.40
2023-03-25T09:05:30.279Z,73.36
2023-03-25T09:08:57.512Z,73.28
2023-03-25T09:12:24.806Z,73.18
2023-03-25T09:15:53.283Z,72.98
2023-03-25T09:19:21.628Z,73.04
2023-03-25T09:22:49.412Z,72.99
2023-03-25T09:26:16.364Z,72.98
2023-03-25T09:29:43.113Z,72.60
2023-03-25T09:33:16.506Z,72.60
2023-03-25T09:36:45.983Z,72.67
2023-03-25T09:40:16.669Z,72.60
2023-03-25T09:43:59.860Z,72.45
2023-03-25T09:47:28.568Z,72.51
2023-03-25T09:50:55.071Z,72.53
2023-03-25T09:54:27.176Z,72.47
2023-03-25T09:58:03.923Z,72.38
2023-03-25T10:01:41.895Z,72.29
2023-03-25T10:05:49.316Z,72.27
2023-03-25T10:09:40.232Z,72.26
2023-03-25T10:13:15.231Z,72.15
2023-03-25T10:16:56.512Z,72.12
2023-03-25T10:20:31.031Z,72.06
2023-03-25T10:24:07.701Z,72.16
2023-03-25T10:27:40.020Z,72.40
2023-03-25T10:31:15.662Z,72.54
2023-03-25T10:34:47.834Z,72.50
2023-03-25T10:38:20.989Z,72.27
2023-03-25T10:41:48.131Z,72.35
2023-03-25T10:45:18.411Z,72.35
2023-03-25T10:48:47.467Z,72.17
2023-03-25T10:52:16.321Z,71.94
2023-03-25T10:55:46.455Z,71.84
2023-03-25T10:59:21.476Z,71.69
2023-03-25T11:02:52.037Z,71.79
2023-03-25T11:06:26.969Z,71.55
2023-03-25T11:09:54.264Z,71.65
2023-03-25T11:13:58.573Z,71.72
2023-03-25T11:17:43.506Z,71.13
2023-03-25T11:21:13.973Z,70.76
2023-03-25T11:24:46.138Z,70.58
2023-03-25T11:28:17.946Z,70.50
2023-03-25T11:31:57.963Z,70.55
2023-03-25T11:35:31.964Z,70.17
2023-03-25T11:39:13.971Z,69.98
2023-03-25T11:42:49.903Z,69.61
2023-03-25T11:46:20.641Z,69.47
2023-03-25T11:49:51.436Z,69.72
2023-03-25T11:53:20.211Z,69.29
2023-03-25T11:56:50.267Z,68.90
2023-03-25T12:00:38.489Z,68.72
2023-03-25T12:04:18.760Z,68.61
2023-03-25T12:07:47.665Z,68.37
2023-03-25T12:11:19.942Z,68.01
2023-03-25T12:14:57.770Z,67.98
2023-03-25T12:18:42.024Z,67.46
2023-03-25T12:22:19.353Z,66.85
2023-03-25T12:25:55.680Z,66.53
2023-03-25T12:29:37.791Z,66.77
2023-03-25T12:33:14.671Z,66.56
2023-03-25T12:36:51.710Z,66.57
2023-03-25T12:40:46.569Z,66.27
2023-03-25T12:44:31.145Z,66.13
2023-03-25T12:48:03.554Z,65.79
2023-03-25T12:51:43.595Z,65.88
2023-03-25T12:55:32.901Z,66.02
2023-03-25T12:59:21.760Z,65.94
2023-03-25T13:03:18.083Z,66.48
2023-03-25T13:06:49.371Z,66.57
2023-03-25T13:10:21.065Z,66.61
2023-03-25T13:13:51.026Z,66.96
2023-03-25T13:17:26.579Z,66.60
2023-03-25T13:21:11.605Z,66.88
2023-03-25T13:24:45.972Z,67.25
2023-03-25T13:28:19.066Z,67.40
2023-03-25T13:31:48.891Z,67.92
2023-03-25T13:35:20.903Z,67.77
2023-03-25T13:38:55.733Z,68.03
2023-03-25T13:42:25.961Z,67.91
2023-03-25T13:45:58.168Z,68.04
2023-03-25T13:49:30.545Z,67.86
2023-03-25T13:53:04.701Z,68.03
2023-03-25T13:56:59.134Z,68.14
2023-03-25T14:00:53.091Z,68.24
2023-03-25T14:05:00.674Z,68.11
2023-03-25T14:08:49.762Z,68.33
2023-03-25T14:12:19.943Z,68.60
2023-03-25T14:15:53.965Z,68.71
2023-03-25T14:19:32.081Z,68.84
2023-03-25T14:23:04.601Z,68.30
2023-03-25T14:26:33.344Z,67.84
2023-03-25T14:30:03.106Z,67.54
2023-03-25T14:33:51.047Z,67.16
2023-03-25T14:37:36.211Z,66.62
2023-03-25T14:41:04.039Z,66.00
2023-03-25T14:44:33.186Z,66.04
2023-03-25T14:48:03.493Z,65.91
2023-03-25T14:51:51.758Z,65.74
2023-03-25T14:55:22.845Z,66.04
2023-03-25T14:58:55.051Z,66.05
2023-03-25T15:02:28.988Z,66.05
2023-03-25T15:06:01.102Z,66.10
2023-03-25T15:09:30.115Z,66.13
2023-03-25T15:13:02.240Z,66.13
2023-03-25T15:16:37.165Z,66.07
2023-03-25T15:20:31.953Z,66.04
2023-03-25T15:24:06.625Z,66.49
2023-03-25T15:27:56.079Z,66.30
2023-03-25T15:31:41.245Z,66.00
2023-03-25T15:35:35.131Z,65.83
2023-03-25T15:39:17.601Z,65.91
2023-03-25T15:43:01.737Z,65.66
2023-03-25T15:47:22.581Z,65.65
2023-03-25T15:51:07.004Z,65.38
2023-03-25T15:54:42.174Z,65.21
2023-03-25T15:58:23.409Z,65.13
2023-03-25T16:01:53.814Z,65.01
2023-03-25T16:05:23.280Z,65.01
2023-03-25T16:08:52.196Z,64.98
2023-03-25T16:12:24.783Z,64.77
2023-03-25T16:15:53.418Z,64.58
2023-03-25T16:19:24.168Z,64.51
2023-03-25T16:22:54.343Z,64.33
2023-03-25T16:26:38.453Z,64.49
2023-03-25T16:30:22.041Z,64.62
2023-03-25T16:33:49.035Z,64.57
2023-03-25T16:37:18.142Z,64.65
2023-03-25T16:40:47.098Z,64.50
2023-03-25T16:44:19.371Z,64.44
2023-03-25T16:47:49.250Z,64.51
2023-03-25T16:51:18.916Z,64.43
2023-03-25T16:55:09.771Z,64.45
2023-03-25T16:58:39.747Z,64.38
2023-03-25T17:02:26.936Z,64.41
2023-03-25T17:06:03.411Z,64.50
2023-03-25T17:09:35.406Z,64.61
2023-03-25T17:13:09.398Z,64.59
2023-03-25T17:16:38.311Z,64.89
2023-03-25T17:20:09.583Z,64.91
2023-03-25T17:23:45.247Z,64.85
2023-03-25T17:27:26.271Z,65.01
2023-03-25T17:30:54.530Z,65.00
2023-03-25T17:34:24.747Z,65.19
2023-03-25T17:37:52.713Z,65.32
2023-03-25T17:41:21.244Z,65.45
2023-03-25T17:44:48.620Z,65.64
2023-03-25T17:48:18.343Z,65.77
2023-03-25T17:51:45.905Z,66.01
2023-03-25T17:55:13.585Z,66.24
2023-03-25T17:58:40.254Z,66.47
2023-03-25T18:02:13.627Z,66.83
2023-03-25T18:05:40.434Z,66.95
2023-03-25T18:09:09.237Z,67.05
2023-03-25T18:12:36.144Z,67.15
2023-03-25T18:16:03.012Z,67.39
2023-03-25T18:19:32.289Z,67.52
2023-03-25T18:22:59.848Z,67.67
2023-03-25T18:26:28.664Z,67.59
2023-03-25T18:29:55.284Z,67.66
2023-03-25T18:33:22.362Z,67.61
2023-03-25T18:36:49.738Z,67.75
2023-03-25T18:40:24.558Z,67.57
2023-03-25T18:43:51.596Z,67.52
2023-03-25T18:47:18.773Z,68.01
2023-03-25T18:50:52.675Z,67.78
2023-03-25T18:54:20.629Z,68.12
2023-03-25T18:57:47.349Z,68.12
2023-03-25T19:01:18.894Z,68.07
2023-03-25T19:04:59.504Z,67.98
2023-03-25T19:08:28.970Z,68.41
2023-03-25T19:11:55.578Z,68.19
2023-03-25T19:15:48.749Z,68.28
2023-03-25T19:19:15.656Z,68.31
2023-03-25T19:22:43.559Z,68.62
2023-03-25T19:26:10.235Z,68.57
2023-03-25T19:29:38.215Z,68.65
2023-03-25T19:33:05.248Z,68.61
2023-03-25T19:36:40.193Z,68.51
2023-03-25T19:40:17.546Z,68.39
2023-03-25T19:43:45.302Z,68.30
2023-03-25T19:47:13.912Z,68.69
2023-03-25T19:50:44.735Z,68.73
2023-03-25T19:54:15.784Z,68.77
2023-03-25T19:57:45.353Z,68.56
2023-03-25T20:01:14.039Z,68.79
2023-03-25T20:04:50.354Z,68.88
2023-03-25T20:08:22.411Z,69.13
2023-03-25T20:11:49.649Z,69.42
2023-03-25T20:15:18.090Z,69.08
2023-03-25T20:18:48.860Z,69.49
2023-03-25T20:22:24.890Z,69.25
2023-03-25T20:25:54.134Z,69.63
2023-03-25T20:29:22.665Z,69.36
2023-03-25T20:32:50.545Z,69.44
2023-03-25T20:36:22.587Z,69.72
2023-03-25T20:39:51.872Z,70.01
2023-03-25T20:43:20.432Z,69.85
2023-03-25T20:46:49.957Z,70.08
2023-03-25T20:50:21.142Z,69.96
2023-03-25T20:53:50.644Z,69.76
2023-03-25T20:57:18.028Z,70.50
2023-03-25T21:00:47.291Z,70.37
2023-03-25T21:04:15.812Z,70.07
2023-03-25T21:07:42.902Z,70.22
2023-03-25T21:11:10.538Z,70.05
2023-03-25T21:14:41.727Z,70.12
2023-03-25T21:18:11.911Z,70.49
2023-03-25T21:21:42.146Z,70.46
2023-03-25T21:25:11.165Z,70.57
2023-03-25T21:28:42.961Z,70.44
2023-03-25T21:32:14.356Z,70.51
2023-03-25T21:35:41.869Z,70.71
2023-03-25T21:39:20.985Z,70.77
2023-03-25T21:42:48.993Z,70.82
2023-03-25T21:46:18.428Z,70.83
2023-03-25T21:49:49.557Z,70.93
2023-03-25T21:53:18.961Z,70.86
2023-03-25T21:56:47.254Z,70.86
2023-03-25T22:00:20.243Z,71.09
2023-03-25T22:03:50.237Z,70.85
2023-03-25T22:07:20.945Z,70.75
2023-03-25T22:10:48.210Z,70.85
2023-03-25T22:14:15.039Z,70.84
2023-03-25T22:17:43.805Z,70.87
2023-03-25T22:21:15.052Z,70.84
2023-03-25T22:24:45.077Z,71.05
2023-03-25T22:28:14.222Z,71.31
2023-03-25T22:31:45.179Z,71.18
2023-03-25T22:35:17.563Z,71.39
2023-03-25T22:38:46.339Z,71.34
2023-03-25T22:42:15.108Z,71.59
2023-03-25T22:45:43.147Z,71.27
2023-03-25T22:49:11.558Z,71.50
2023-03-25T22:52:40.850Z,71.69
2023-03-25T22:56:13.341Z,71.60
2023-03-25T22:59:41.324Z,71.43
2023-03-25T23:03:11.475Z,71.57
2023-03-25T23:06:39.094Z,71.64
2023-03-25T23:10:10.158Z,71.87
2023-03-25T23:13:37.655Z,71.39
2023-03-25T23:17:04.981Z,71.67
2023-03-25T23:20:31.990Z,71.65
2023-03-25T23:24:01.807Z,71.53
2023-03-25T23:27:34.121Z,71.80
2023-03-25T23:31:03.905Z,71.46
2023-03-25T23:34:32.081Z,71.72
2023-03-25T23:37:59.746Z,71.42
2023-03-25T23:41:27.410Z,71.96
2023-03-25T23:44:54.942Z,71.78
2023-03-25T23:48:23.053Z,71.92
2023-03-25T23:51:51.409Z,71.66
2023-03-25T23:55:18.801Z,72.07
2023-03-25T23:58:45.550Z,72.25
